Burghill, Ohio
Current Conditions -  °F | °C
As of 7:51 PM on Friday 19 Dec 2014 (Local Time) from KYNG Reporting Station
Overcast Overcast  
Wind Chill: 19°   Ceiling: 2400
Heat Index: 28°   Visibility: 10mi
Dew Point: 20°   Wind: 9mph
Humidity: 72%   Direction: 320°NW
Pressure: 30.27"   Gusts: NA
Location:  41.33°N, 80.54°W
Report Text: KYNG 200051Z 32008KT 10SM OVC024 M02/M07 A3027 RMK AO2 SLP267 T10221067
Loading
Personal Weather Stations






























Interactive Weather Map New forecast layout! Learn more

10-Day Weather Forecast

Advertisements
Track Severe Weather on mobile